createdAt,value
2023-01-18T00:00:24.777Z,-1.20
2023-01-18T00:01:24.705Z,-1.21
2023-01-18T00:02:24.707Z,-1.25
2023-01-18T00:03:24.712Z,-1.26
2023-01-18T00:04:24.701Z,-1.26
2023-01-18T00:05:24.681Z,-1.28
2023-01-18T00:06:24.690Z,-1.31
2023-01-18T00:07:24.644Z,-1.32
2023-01-18T00:08:24.674Z,-1.33
2023-01-18T00:09:24.654Z,-1.36
2023-01-18T00:10:24.624Z,-1.38
2023-01-18T00:11:24.624Z,-1.36
2023-01-18T00:12:24.605Z,-1.38
2023-01-18T00:13:24.631Z,-1.38
2023-01-18T00:14:24.629Z,-1.41
2023-01-18T00:15:24.581Z,-1.39
2023-01-18T00:16:24.580Z,-1.38
2023-01-18T00:17:24.569Z,-1.33
2023-01-18T00:18:24.562Z,-1.32
2023-01-18T00:19:31.081Z,-1.32
2023-01-18T00:20:24.545Z,-1.26
2023-01-18T00:21:24.533Z,-1.21
2023-01-18T00:22:24.523Z,-1.17
2023-01-18T00:23:24.514Z,-1.14
2023-01-18T00:24:24.510Z,-1.14
2023-01-18T00:25:24.466Z,-1.15
2023-01-18T00:26:24.484Z,-1.15
2023-01-18T00:27:24.547Z,-1.18
2023-01-18T00:28:24.459Z,-1.18
2023-01-18T00:29:24.449Z,-1.18
2023-01-18T00:30:24.437Z,-1.18
2023-01-18T00:31:24.469Z,-1.18
2023-01-18T00:32:24.395Z,-1.20
2023-01-18T00:33:24.425Z,-1.20
2023-01-18T00:34:24.385Z,-1.21
2023-01-18T00:35:24.389Z,-1.23
2023-01-18T00:36:24.354Z,-1.25
2023-01-18T00:37:24.367Z,-1.26
2023-01-18T00:38:24.331Z,-1.26
2023-01-18T00:39:30.863Z,-1.31
2023-01-18T00:40:24.310Z,-1.31
2023-01-18T00:41:24.346Z,-1.32
2023-01-18T00:42:24.291Z,-1.29
2023-01-18T00:43:24.329Z,-1.26
2023-01-18T00:44:24.272Z,-1.23
2023-01-18T00:45:24.302Z,-1.26
2023-01-18T00:46:24.280Z,-1.26
2023-01-18T00:47:24.273Z,-1.25
2023-01-18T00:48:24.248Z,-1.28
2023-01-18T00:49:24.272Z,-1.28
2023-01-18T00:50:24.213Z,-1.31
2023-01-18T00:51:24.249Z,-1.32
2023-01-18T00:52:24.225Z,-1.35
2023-01-18T00:53:24.218Z,-1.39
2023-01-18T00:54:24.192Z,-1.44
2023-01-18T00:55:24.201Z,-1.46
2023-01-18T00:56:24.148Z,-1.46
2023-01-18T00:57:24.170Z,-1.47
2023-01-18T00:58:24.227Z,-1.47
2023-01-18T00:59:30.668Z,-1.49
2023-01-18T01:00:24.121Z,-1.50
2023-01-18T01:01:24.182Z,-1.49
2023-01-18T01:02:24.117Z,-1.50
2023-01-18T01:03:24.096Z,-1.53
2023-01-18T01:04:24.192Z,-1.59
2023-01-18T01:05:24.066Z,-1.61
2023-01-18T01:06:24.052Z,-1.57
2023-01-18T01:07:24.054Z,-1.56
2023-01-18T01:08:24.056Z,-1.56
2023-01-18T01:09:24.057Z,-1.54
2023-01-18T01:10:24.038Z,-1.51
2023-01-18T01:11:24.021Z,-1.51
2023-01-18T01:12:24.026Z,-1.56
2023-01-18T01:13:24.007Z,-1.59
2023-01-18T01:14:23.974Z,-1.61
2023-01-18T01:15:23.991Z,-1.61
2023-01-18T01:16:24.068Z,-1.65
2023-01-18T01:17:23.951Z,-1.68
2023-01-18T01:18:23.947Z,-1.70
2023-01-18T01:19:30.458Z,-1.70
2023-01-18T01:20:23.932Z,-1.64
2023-01-18T01:21:23.935Z,-1.56
2023-01-18T01:22:23.889Z,-1.51
2023-01-18T01:23:23.887Z,-1.49
2023-01-18T01:24:23.892Z,-1.49
2023-01-18T01:25:23.938Z,-1.49
2023-01-18T01:26:23.875Z,-1.49
2023-01-18T01:27:23.863Z,-1.51
2023-01-18T01:28:23.841Z,-1.51
2023-01-18T01:29:23.914Z,-1.53
2023-01-18T01:30:23.882Z,-1.53
2023-01-18T01:31:23.878Z,-1.53
2023-01-18T01:32:23.823Z,-1.57
2023-01-18T01:33:23.853Z,-1.59
2023-01-18T01:34:23.815Z,-1.57
2023-01-18T01:35:23.783Z,-1.57
2023-01-18T01:36:23.811Z,-1.54
2023-01-18T01:37:23.766Z,-1.53
2023-01-18T01:38:23.726Z,-1.50
2023-01-18T01:39:30.263Z,-1.50
2023-01-18T01:40:23.716Z,-1.47
2023-01-18T01:41:23.704Z,-1.47
2023-01-18T01:42:23.763Z,-1.49
2023-01-18T01:43:23.695Z,-1.47
2023-01-18T01:44:23.695Z,-1.49
2023-01-18T01:45:23.695Z,-1.51
2023-01-18T01:46:23.680Z,-1.54
2023-01-18T01:47:23.670Z,-1.56
2023-01-18T01:48:23.638Z,-1.59
2023-01-18T01:49:23.652Z,-1.59
2023-01-18T01:50:23.638Z,-1.59
2023-01-18T01:51:23.623Z,-1.64
2023-01-18T01:52:23.636Z,-1.68
2023-01-18T01:53:23.612Z,-1.74
2023-01-18T01:54:23.602Z,-1.77
2023-01-18T01:55:23.581Z,-1.82
2023-01-18T01:56:23.580Z,-1.78
2023-01-18T01:57:23.548Z,-1.78
2023-01-18T01:58:23.520Z,-1.82
2023-01-18T01:59:23.548Z,-1.85
2023-01-18T02:00:23.937Z,-1.85
2023-01-18T02:01:23.647Z,-1.88
2023-01-18T02:02:23.534Z,-1.86
2023-01-18T02:03:23.520Z,-1.83
2023-01-18T02:04:23.509Z,-1.83
2023-01-18T02:05:23.502Z,-1.83
2023-01-18T02:06:23.543Z,-1.83
2023-01-18T02:07:23.433Z,-1.85
2023-01-18T02:08:23.432Z,-1.86
2023-01-18T02:09:23.455Z,-1.90
2023-01-18T02:10:23.425Z,-1.93
2023-01-18T02:11:23.400Z,-1.92
2023-01-18T02:12:23.408Z,-1.86
2023-01-18T02:13:23.378Z,-1.83
2023-01-18T02:14:23.382Z,-1.86
2023-01-18T02:15:23.355Z,-1.90
2023-01-18T02:16:23.426Z,-1.86
2023-01-18T02:17:23.357Z,-1.83
2023-01-18T02:18:23.331Z,-1.82
2023-01-18T02:19:29.831Z,-1.82
2023-01-18T02:20:23.333Z,-1.83
2023-01-18T02:21:23.290Z,-1.82
2023-01-18T02:22:23.331Z,-1.82
2023-01-18T02:23:23.275Z,-1.86
2023-01-18T02:24:23.311Z,-1.89
2023-01-18T02:25:23.302Z,-1.93
2023-01-18T02:26:23.260Z,-1.96
2023-01-18T02:27:23.262Z,-2.00
2023-01-18T02:28:23.261Z,-2.00
2023-01-18T02:29:23.239Z,-1.95
2023-01-18T02:30:23.212Z,-1.90
2023-01-18T02:31:23.269Z,-1.90
2023-01-18T02:32:24.536Z,-1.93
2023-01-18T02:33:23.206Z,-1.95
2023-01-18T02:34:23.546Z,-1.93
2023-01-18T02:35:23.161Z,-1.93
2023-01-18T02:36:23.536Z,-1.95
2023-01-18T02:37:23.150Z,-1.96
2023-01-18T02:38:23.134Z,-2.00
2023-01-18T02:39:29.628Z,-2.00
2023-01-18T02:40:23.094Z,-1.96
2023-01-18T02:41:23.105Z,-2.01
2023-01-18T02:42:23.077Z,-2.00
2023-01-18T02:43:23.092Z,-1.95
2023-01-18T02:44:23.075Z,-1.92
2023-01-18T02:45:23.025Z,-1.89
2023-01-18T02:46:23.047Z,-1.89
2023-01-18T02:47:23.023Z,-1.89
2023-01-18T02:48:23.033Z,-1.85
2023-01-18T02:49:23.018Z,-1.83
2023-01-18T02:50:23.024Z,-1.82
2023-01-18T02:51:22.993Z,-1.82
2023-01-18T02:52:22.980Z,-1.85
2023-01-18T02:53:22.943Z,-1.86
2023-01-18T02:54:22.949Z,-1.88
2023-01-18T02:55:22.945Z,-1.90
2023-01-18T02:56:22.949Z,-1.95
2023-01-18T02:57:22.909Z,-1.93
2023-01-18T02:58:22.919Z,-1.92
2023-01-18T02:59:29.428Z,-2.00
2023-01-18T03:00:22.881Z,-2.03
2023-01-18T03:01:22.971Z,-2.07
2023-01-18T03:02:22.960Z,-2.08
2023-01-18T03:03:22.836Z,-2.10
2023-01-18T03:04:22.848Z,-2.13
2023-01-18T03:05:22.844Z,-2.14
2023-01-18T03:06:22.840Z,-2.16
2023-01-18T03:07:22.814Z,-2.19
2023-01-18T03:08:22.798Z,-2.18
2023-01-18T03:09:22.786Z,-2.16
2023-01-18T03:10:22.807Z,-2.14
2023-01-18T03:11:22.801Z,-2.18
2023-01-18T03:12:23.195Z,-2.14
2023-01-18T03:13:22.758Z,-2.14
2023-01-18T03:14:22.741Z,-2.21
2023-01-18T03:15:22.711Z,-2.19
2023-01-18T03:16:22.732Z,-2.19
2023-01-18T03:17:22.688Z,-2.22
2023-01-18T03:18:22.688Z,-2.24
2023-01-18T03:19:29.213Z,-2.28
2023-01-18T03:20:25.353Z,-2.33
2023-01-18T03:21:22.648Z,-2.37
2023-01-18T03:22:22.667Z,-2.41
2023-01-18T03:23:22.645Z,-2.44
2023-01-18T03:24:22.641Z,-2.41
2023-01-18T03:25:22.638Z,-2.43
2023-01-18T03:26:22.621Z,-2.43
2023-01-18T03:27:22.606Z,-2.44
2023-01-18T03:28:22.619Z,-2.44
2023-01-18T03:29:22.564Z,-2.37
2023-01-18T03:30:22.570Z,-2.28
2023-01-18T03:31:22.722Z,-2.26
2023-01-18T03:32:22.551Z,-2.29
2023-01-18T03:33:22.593Z,-2.33
2023-01-18T03:34:22.538Z,-2.37
2023-01-18T03:35:22.507Z,-2.37
2023-01-18T03:36:22.495Z,-2.38
2023-01-18T03:37:22.485Z,-2.38
2023-01-18T03:38:22.475Z,-2.40
2023-01-18T03:39:22.464Z,-2.41
2023-01-18T03:40:22.491Z,-2.43
2023-01-18T03:41:22.458Z,-2.43
2023-01-18T03:42:22.456Z,-2.43
2023-01-18T03:43:22.424Z,-2.40
2023-01-18T03:44:22.414Z,-2.41
2023-01-18T03:45:22.446Z,-2.40
2023-01-18T03:46:22.505Z,-2.40
2023-01-18T03:47:22.378Z,-2.40
2023-01-18T03:48:22.372Z,-2.43
2023-01-18T03:49:22.372Z,-2.43
2023-01-18T03:50:22.376Z,-2.47
2023-01-18T03:51:22.368Z,-2.46
2023-01-18T03:52:22.318Z,-2.47
2023-01-18T03:53:22.328Z,-2.48
2023-01-18T03:54:22.299Z,-2.44
2023-01-18T03:55:22.326Z,-2.44
2023-01-18T03:56:22.315Z,-2.43
2023-01-18T03:57:22.302Z,-2.43
2023-01-18T03:58:22.253Z,-2.41
2023-01-18T03:59:22.310Z,-2.41
2023-01-18T04:00:22.242Z,-2.38
2023-01-18T04:01:22.422Z,-2.40
2023-01-18T04:02:22.266Z,-2.38
2023-01-18T04:03:22.219Z,-2.38
2023-01-18T04:04:22.291Z,-2.41
2023-01-18T04:05:22.219Z,-2.38
2023-01-18T04:06:22.208Z,-2.33
2023-01-18T04:07:22.173Z,-2.29
2023-01-18T04:08:22.171Z,-2.32
2023-01-18T04:09:29.227Z,-2.29
2023-01-18T04:10:22.134Z,-2.22
2023-01-18T04:11:22.155Z,-2.22
2023-01-18T04:12:22.140Z,-2.18
2023-01-18T04:13:22.110Z,-2.11
2023-01-18T04:14:22.134Z,-2.11
2023-01-18T04:15:22.112Z,-2.08
2023-01-18T04:16:22.131Z,-2.07
2023-01-18T04:17:22.066Z,-2.06
2023-01-18T04:18:22.081Z,-2.06
2023-01-18T04:19:22.066Z,-2.06
2023-01-18T04:20:22.033Z,-2.07
2023-01-18T04:21:22.055Z,-2.08
2023-01-18T04:22:22.025Z,-2.07
2023-01-18T04:23:22.035Z,-2.11
2023-01-18T04:24:22.022Z,-2.14
2023-01-18T04:25:22.023Z,-2.16
2023-01-18T04:26:21.973Z,-2.14
2023-01-18T04:27:24.275Z,-2.16
2023-01-18T04:28:21.952Z,-2.14
2023-01-18T04:29:28.472Z,-2.19
2023-01-18T04:30:21.937Z,-2.19
2023-01-18T04:31:22.044Z,-2.18
2023-01-18T04:32:21.944Z,-2.19
2023-01-18T04:33:21.917Z,-2.18
2023-01-18T04:34:21.917Z,-2.16
2023-01-18T04:35:21.962Z,-2.16
2023-01-18T04:36:21.895Z,-2.11
2023-01-18T04:37:21.859Z,-2.10
2023-01-18T04:38:21.875Z,-2.08
2023-01-18T04:39:21.835Z,-2.07
2023-01-18T04:40:21.854Z,-2.06
2023-01-18T04:41:21.845Z,-2.07
2023-01-18T04:42:21.841Z,-2.07
2023-01-18T04:43:21.821Z,-2.08
2023-01-18T04:44:21.806Z,-2.07
2023-01-18T04:45:21.772Z,-2.08
2023-01-18T04:46:21.809Z,-2.07
2023-01-18T04:47:21.774Z,-2.08
2023-01-18T04:48:21.743Z,-2.08
2023-01-18T04:49:28.275Z,-2.11
2023-01-18T04:50:21.745Z,-2.14
2023-01-18T04:51:21.719Z,-2.13
2023-01-18T04:52:21.730Z,-2.16
2023-01-18T04:53:21.705Z,-2.14
2023-01-18T04:54:21.692Z,-2.14
2023-01-18T04:55:21.666Z,-2.13
2023-01-18T04:56:21.662Z,-2.10
2023-01-18T04:57:21.661Z,-2.10
2023-01-18T04:58:21.651Z,-2.11
2023-01-18T04:59:21.651Z,-2.10
2023-01-18T05:00:21.623Z,-2.14
2023-01-18T05:01:21.798Z,-2.16
2023-01-18T05:02:21.664Z,-2.14
2023-01-18T05:03:21.607Z,-2.13
2023-01-18T05:04:21.599Z,-2.16
2023-01-18T05:05:21.581Z,-2.14
2023-01-18T05:06:21.656Z,-2.16
2023-01-18T05:07:21.562Z,-2.18
2023-01-18T05:08:21.545Z,-2.18
2023-01-18T05:09:28.041Z,-2.18
2023-01-18T05:10:21.541Z,-2.18
2023-01-18T05:11:21.521Z,-2.16
2023-01-18T05:12:21.518Z,-2.16
2023-01-18T05:13:21.501Z,-2.18
2023-01-18T05:14:21.512Z,-2.16
2023-01-18T05:15:21.462Z,-2.18
2023-01-18T05:16:21.545Z,-2.18
2023-01-18T05:17:21.469Z,-2.14
2023-01-18T05:18:21.470Z,-2.10
2023-01-18T05:19:21.425Z,-2.14
2023-01-18T05:20:21.422Z,-2.14
2023-01-18T05:21:21.719Z,-2.14
2023-01-18T05:22:21.408Z,-2.13
2023-01-18T05:23:21.399Z,-2.14
2023-01-18T05:24:21.400Z,-2.18
2023-01-18T05:25:21.375Z,-2.21
2023-01-18T05:26:21.374Z,-2.18
2023-01-18T05:27:21.329Z,-2.13
2023-01-18T05:28:21.351Z,-2.14
2023-01-18T05:29:27.895Z,-2.10
2023-01-18T05:30:21.304Z,-2.06
2023-01-18T05:31:21.520Z,-2.06
2023-01-18T05:32:21.305Z,-2.10
2023-01-18T05:33:21.270Z,-2.11
2023-01-18T05:34:21.260Z,-2.13
2023-01-18T05:35:21.251Z,-2.13
2023-01-18T05:36:21.263Z,-2.13
2023-01-18T05:37:21.312Z,-2.14
2023-01-18T05:38:21.267Z,-2.14
2023-01-18T05:39:21.231Z,-2.10
2023-01-18T05:40:21.226Z,-2.06
2023-01-18T05:41:21.239Z,-2.06
2023-01-18T05:42:21.176Z,-2.06
2023-01-18T05:43:21.177Z,-2.06
2023-01-18T05:44:21.159Z,-2.07
2023-01-18T05:45:21.161Z,-2.08
2023-01-18T05:46:21.135Z,-2.08
2023-01-18T05:47:21.139Z,-2.08
2023-01-18T05:48:21.160Z,-2.04
2023-01-18T05:49:21.095Z,-2.03
2023-01-18T05:50:21.092Z,-2.01
2023-01-18T05:51:21.183Z,-2.00
2023-01-18T05:52:21.093Z,-1.98
2023-01-18T05:53:21.086Z,-1.95
2023-01-18T05:54:21.051Z,-1.93
2023-01-18T05:55:21.065Z,-1.95
2023-01-18T05:56:21.030Z,-1.96
2023-01-18T05:57:21.022Z,-1.98
2023-01-18T05:58:21.028Z,-2.01
2023-01-18T05:59:27.523Z,-2.00
2023-01-18T06:00:21.016Z,-2.00
2023-01-18T06:01:21.072Z,-2.00
2023-01-18T06:02:20.969Z,-1.98
2023-01-18T06:03:20.961Z,-1.96
2023-01-18T06:04:21.060Z,-1.98
2023-01-18T06:05:20.952Z,-1.96
2023-01-18T06:06:20.956Z,-1.98
2023-01-18T06:07:20.919Z,-1.98
2023-01-18T06:08:21.030Z,-1.98
2023-01-18T06:09:20.895Z,-1.98
2023-01-18T06:10:20.907Z,-2.00
2023-01-18T06:11:20.871Z,-2.04
2023-01-18T06:12:20.904Z,-2.07
2023-01-18T06:13:20.882Z,-2.07
2023-01-18T06:14:20.851Z,-2.07
2023-01-18T06:15:20.840Z,-2.08
2023-01-18T06:16:20.872Z,-2.07
2023-01-18T06:17:20.845Z,-2.08
2023-01-18T06:18:20.855Z,-2.13
2023-01-18T06:19:27.322Z,-2.14
2023-01-18T06:20:20.791Z,-2.13
2023-01-18T06:21:21.513Z,-2.13
2023-01-18T06:22:20.776Z,-2.14
2023-01-18T06:23:20.778Z,-2.16
2023-01-18T06:24:20.757Z,-2.18
2023-01-18T06:25:20.727Z,-2.18
2023-01-18T06:26:20.735Z,-2.18
2023-01-18T06:27:20.705Z,-2.16
2023-01-18T06:28:20.722Z,-2.14
2023-01-18T06:29:20.711Z,-2.14
2023-01-18T06:30:20.687Z,-2.14
2023-01-18T06:31:20.713Z,-2.14
2023-01-18T06:32:20.687Z,-2.13
2023-01-18T06:33:20.684Z,-2.13
2023-01-18T06:34:20.671Z,-2.10
2023-01-18T06:35:20.640Z,-2.10
2023-01-18T06:36:20.652Z,-2.08
2023-01-18T06:37:20.606Z,-2.08
2023-01-18T06:38:20.647Z,-2.10
2023-01-18T06:39:20.689Z,-2.08
2023-01-18T06:40:20.632Z,-2.08
2023-01-18T06:41:20.601Z,-2.08
2023-01-18T06:42:20.557Z,-2.07
2023-01-18T06:43:20.574Z,-2.07
2023-01-18T06:44:20.567Z,-2.06
2023-01-18T06:45:20.543Z,-2.06
2023-01-18T06:46:20.584Z,-2.03
2023-01-18T06:47:20.522Z,-2.03
2023-01-18T06:48:20.519Z,-2.01
2023-01-18T06:49:20.495Z,-2.01
2023-01-18T06:50:20.468Z,-2.00
2023-01-18T06:51:20.514Z,-2.01
2023-01-18T06:52:20.480Z,-2.03
2023-01-18T06:53:20.692Z,-2.06
2023-01-18T06:54:20.543Z,-2.06
2023-01-18T06:55:20.445Z,-2.07
2023-01-18T06:56:20.451Z,-2.06
2023-01-18T06:57:20.429Z,-2.04
2023-01-18T06:58:20.414Z,-2.04
2023-01-18T06:59:27.950Z,-2.08
2023-01-18T07:00:20.366Z,-2.08
2023-01-18T07:01:20.463Z,-2.08
2023-01-18T07:02:20.365Z,-2.07
2023-01-18T07:03:20.343Z,-2.06
2023-01-18T07:04:20.400Z,-2.04
2023-01-18T07:05:20.345Z,-2.00
2023-01-18T07:06:20.304Z,-1.96
2023-01-18T07:07:20.336Z,-1.95
2023-01-18T07:08:20.287Z,-1.93
2023-01-18T07:09:20.301Z,-1.95
2023-01-18T07:10:20.348Z,-1.96
2023-01-18T07:11:20.493Z,-2.01
2023-01-18T07:12:20.277Z,-2.03
2023-01-18T07:13:20.281Z,-2.06
2023-01-18T07:14:20.246Z,-2.07
2023-01-18T07:15:22.676Z,-2.04
2023-01-18T07:16:20.258Z,-2.04
2023-01-18T07:17:20.232Z,-2.03
2023-01-18T07:18:20.181Z,-1.96
2023-01-18T07:19:20.182Z,-1.95
2023-01-18T07:20:20.207Z,-1.95
2023-01-18T07:21:20.168Z,-1.95
2023-01-18T07:22:20.160Z,-1.93
2023-01-18T07:23:20.149Z,-1.93
2023-01-18T07:24:20.147Z,-1.93
2023-01-18T07:25:20.141Z,-1.92
2023-01-18T07:26:20.152Z,-1.90
2023-01-18T07:27:20.480Z,-1.90
2023-01-18T07:28:20.739Z,-1.90
2023-01-18T07:29:20.103Z,-1.90
2023-01-18T07:30:20.189Z,-1.86
2023-01-18T07:31:20.068Z,-1.83
2023-01-18T07:32:20.054Z,-1.83
2023-01-18T07:33:20.087Z,-1.85
2023-01-18T07:34:20.062Z,-1.83
2023-01-18T07:35:20.630Z,-1.82
2023-01-18T07:36:20.041Z,-1.83
2023-01-18T07:37:20.029Z,-1.82
2023-01-18T07:38:20.039Z,-1.80
2023-01-18T07:39:26.591Z,-1.82
2023-01-18T07:40:19.993Z,-1.78
2023-01-18T07:41:20.058Z,-1.77
2023-01-18T07:42:19.997Z,-1.80
2023-01-18T07:43:19.958Z,-1.80
2023-01-18T07:44:19.974Z,-1.82
2023-01-18T07:45:19.936Z,-1.80
2023-01-18T07:46:20.741Z,-1.78
2023-01-18T07:47:19.932Z,-1.75
2023-01-18T07:48:19.926Z,-1.75
2023-01-18T07:49:19.901Z,-1.75
2023-01-18T07:50:19.900Z,-1.78
2023-01-18T07:51:19.884Z,-1.78
2023-01-18T07:52:19.910Z,-1.75
2023-01-18T07:53:21.068Z,-1.72
2023-01-18T07:54:19.888Z,-1.72
2023-01-18T07:55:19.835Z,-1.70
2023-01-18T07:56:19.855Z,-1.70
2023-01-18T07:57:19.845Z,-1.71
2023-01-18T07:58:22.837Z,-1.71
2023-01-18T07:59:26.335Z,-1.71
2023-01-18T08:00:19.822Z,-1.64
2023-01-18T08:01:19.911Z,-1.64
2023-01-18T08:02:19.818Z,-1.59
2023-01-18T08:03:19.772Z,-1.57
2023-01-18T08:04:19.771Z,-1.57
2023-01-18T08:05:19.739Z,-1.59
2023-01-18T08:06:20.584Z,-1.61
2023-01-18T08:07:20.584Z,-1.62
2023-01-18T08:08:19.745Z,-1.64
2023-01-18T08:09:19.710Z,-1.61
2023-01-18T08:10:19.717Z,-1.64
2023-01-18T08:11:20.644Z,-1.67
2023-01-18T08:12:19.726Z,-1.67
2023-01-18T08:13:19.690Z,-1.64
2023-01-18T08:14:19.665Z,-1.64
2023-01-18T08:15:19.667Z,-1.61
2023-01-18T08:16:19.627Z,-1.57
2023-01-18T08:17:19.623Z,-1.54
2023-01-18T08:18:19.658Z,-1.54
2023-01-18T08:19:19.614Z,-1.54
2023-01-18T08:20:19.614Z,-1.54
2023-01-18T08:21:19.635Z,-1.56
2023-01-18T08:22:19.564Z,-1.56
2023-01-18T08:23:19.592Z,-1.54
2023-01-18T08:24:19.586Z,-1.56
2023-01-18T08:25:19.564Z,-1.54
2023-01-18T08:26:19.534Z,-1.54
2023-01-18T08:27:19.532Z,-1.53
2023-01-18T08:28:19.570Z,-1.47
2023-01-18T08:29:19.495Z,-1.46
2023-01-18T08:30:19.492Z,-1.43
2023-01-18T08:31:19.870Z,-1.39
2023-01-18T08:32:19.493Z,-1.36
2023-01-18T08:33:19.477Z,-1.32
2023-01-18T08:34:19.467Z,-1.31
2023-01-18T08:35:19.618Z,-1.26
2023-01-18T08:36:19.445Z,-1.25
2023-01-18T08:37:20.078Z,-1.21
2023-01-18T08:38:19.394Z,-1.18
2023-01-18T08:39:19.590Z,-1.14
2023-01-18T08:40:19.364Z,-1.10
2023-01-18T08:41:19.385Z,-1.07
2023-01-18T08:42:19.406Z,-1.03
2023-01-18T08:43:19.356Z,-1.03
2023-01-18T08:44:19.329Z,-1.02
2023-01-18T08:45:19.338Z,-1.03
2023-01-18T08:46:19.434Z,-1.02
2023-01-18T08:47:19.323Z,-1.05
2023-01-18T08:48:19.350Z,-1.00
2023-01-18T08:50:29.982Z,-0.89
2023-01-18T08:51:30.983Z,-0.81
2023-01-18T08:52:30.964Z,-0.74
2023-01-18T08:53:30.979Z,-0.67
2023-01-18T08:54:30.961Z,-0.68
2023-01-18T08:55:30.942Z,-0.70
2023-01-18T08:56:30.977Z,-0.65
2023-01-18T08:57:30.918Z,-0.59
2023-01-18T08:58:30.904Z,-0.52
2023-01-18T08:59:30.913Z,-0.45
2023-01-18T09:00:30.913Z,-0.38
2023-01-18T09:01:30.976Z,-0.34
2023-01-18T09:02:30.875Z,-0.30
2023-01-18T09:03:31.050Z,-0.23
2023-01-18T09:04:30.867Z,-0.19
2023-01-18T09:05:30.828Z,-0.13
2023-01-18T09:06:30.864Z,-0.09
2023-01-18T09:07:30.790Z,-0.06
2023-01-18T09:08:30.829Z,-0.08
2023-01-18T09:09:30.776Z,-0.06
2023-01-18T09:10:30.791Z,-0.02
2023-01-18T09:11:30.787Z,0.07
2023-01-18T09:12:31.565Z,0.17
2023-01-18T09:13:30.781Z,0.31
2023-01-18T09:14:30.720Z,0.41
2023-01-18T09:15:30.701Z,0.52
2023-01-18T09:16:31.527Z,0.63
2023-01-18T09:17:30.675Z,0.88
2023-01-18T09:18:30.714Z,1.21
2023-01-18T09:19:30.695Z,1.49
2023-01-18T09:20:31.177Z,1.63
2023-01-18T09:21:31.206Z,1.75
2023-01-18T09:22:30.851Z,1.93
2023-01-18T09:23:30.634Z,2.07
2023-01-18T09:24:30.619Z,2.08
2023-01-18T09:25:30.605Z,2.04
2023-01-18T09:26:30.781Z,1.86
2023-01-18T09:27:30.596Z,1.74
2023-01-18T09:28:30.656Z,1.70
2023-01-18T09:29:42.017Z,1.83
2023-01-18T09:30:31.022Z,1.98
2023-01-18T09:31:30.674Z,2.18
2023-01-18T09:32:30.507Z,2.37
2023-01-18T09:33:37.455Z,2.51
2023-01-18T09:34:30.527Z,2.63
2023-01-18T09:35:30.531Z,2.94
2023-01-18T09:36:30.569Z,3.17
2023-01-18T09:37:30.492Z,3.41
2023-01-18T09:38:30.463Z,3.68
2023-01-18T09:39:35.290Z,3.90
2023-01-18T09:40:30.429Z,4.02
2023-01-18T09:41:30.656Z,4.04
2023-01-18T09:42:30.419Z,4.25
2023-01-18T09:43:30.481Z,4.35
2023-01-18T09:44:30.376Z,4.31
2023-01-18T09:45:30.385Z,4.43
2023-01-18T09:46:30.458Z,4.43
2023-01-18T09:47:30.391Z,4.39
2023-01-18T09:48:30.367Z,4.28
2023-01-18T09:49:30.408Z,4.10
2023-01-18T09:50:30.357Z,3.92
2023-01-18T09:51:30.342Z,3.92
2023-01-18T09:52:30.327Z,3.99
2023-01-18T09:53:30.545Z,4.07
2023-01-18T09:54:30.305Z,4.11
2023-01-18T09:55:30.290Z,4.18
2023-01-18T09:56:30.278Z,4.43
2023-01-18T09:57:30.236Z,4.59
2023-01-18T09:58:30.259Z,4.86
2023-01-18T09:59:30.232Z,5.08
2023-01-18T10:00:30.302Z,5.26
2023-01-18T10:01:30.313Z,5.27
2023-01-18T10:02:30.245Z,5.29
2023-01-18T10:03:30.232Z,5.29
2023-01-18T10:04:30.207Z,5.32
2023-01-18T10:05:30.190Z,5.27
2023-01-18T10:06:30.160Z,5.33
2023-01-18T10:07:30.164Z,5.23
2023-01-18T10:08:30.155Z,5.02
2023-01-18T10:09:30.107Z,4.79
2023-01-18T10:10:30.136Z,4.90
2023-01-18T10:11:30.196Z,5.35
2023-01-18T10:12:30.112Z,5.78
2023-01-18T10:13:30.087Z,5.75
2023-01-18T10:14:30.154Z,5.74
2023-01-18T10:15:30.075Z,6.06
2023-01-18T10:16:30.121Z,6.60
2023-01-18T10:17:30.028Z,6.90
2023-01-18T10:18:31.000Z,7.01
2023-01-18T10:19:30.034Z,7.19
2023-01-18T10:20:30.032Z,7.19
2023-01-18T10:21:30.002Z,7.18
2023-01-18T10:22:29.994Z,7.05
2023-01-18T10:23:29.986Z,7.15
2023-01-18T10:24:29.975Z,7.21
2023-01-18T10:25:29.965Z,7.11
2023-01-18T10:26:29.947Z,6.76
2023-01-18T10:27:29.939Z,6.79
2023-01-18T10:28:29.908Z,6.73
2023-01-18T10:29:36.504Z,6.68
2023-01-18T10:30:30.784Z,6.40
2023-01-18T10:31:29.930Z,6.25
2023-01-18T10:32:29.870Z,6.10
2023-01-18T10:33:29.910Z,5.87
2023-01-18T10:34:29.854Z,5.55
2023-01-18T10:35:29.859Z,5.26
2023-01-18T10:36:30.043Z,5.12
2023-01-18T10:37:29.845Z,5.05
2023-01-18T10:38:29.799Z,5.11
2023-01-18T10:39:29.818Z,5.06
2023-01-18T10:40:29.797Z,5.02
2023-01-18T10:41:29.975Z,5.05
2023-01-18T10:42:29.758Z,5.23
2023-01-18T10:43:29.811Z,5.70
2023-01-18T10:44:29.769Z,6.25
2023-01-18T10:45:29.893Z,6.82
2023-01-18T10:46:29.705Z,7.33
2023-01-18T10:47:29.727Z,7.76
2023-01-18T10:48:29.696Z,7.85
2023-01-18T10:49:29.716Z,7.74
2023-01-18T10:50:29.688Z,7.51
2023-01-18T10:51:29.699Z,7.24
2023-01-18T10:52:29.892Z,7.01
2023-01-18T10:53:29.662Z,6.94
2023-01-18T10:54:29.615Z,6.97
2023-01-18T10:55:29.636Z,7.01
2023-01-18T10:56:29.625Z,7.16
2023-01-18T10:57:29.584Z,7.24
2023-01-18T10:58:29.588Z,7.24
2023-01-18T10:59:29.583Z,7.19
2023-01-18T11:00:29.578Z,7.29
2023-01-18T11:01:29.680Z,7.21
2023-01-18T11:02:29.839Z,7.16
2023-01-18T11:03:29.533Z,7.34
2023-01-18T11:04:29.570Z,7.37
2023-01-18T11:05:29.527Z,7.09
2023-01-18T11:06:29.525Z,6.65
2023-01-18T11:07:29.485Z,6.40
2023-01-18T11:08:29.475Z,6.19
2023-01-18T11:09:29.456Z,5.96
2023-01-18T11:10:29.451Z,5.80
2023-01-18T11:11:29.426Z,5.69
2023-01-18T11:12:29.421Z,5.55
2023-01-18T11:13:29.410Z,5.48
2023-01-18T11:14:29.442Z,5.37
2023-01-18T11:15:29.393Z,5.41
2023-01-18T11:16:29.546Z,5.42
2023-01-18T11:17:29.364Z,5.47
2023-01-18T11:18:29.428Z,5.52
2023-01-18T11:19:29.368Z,5.62
2023-01-18T11:20:29.350Z,5.75
2023-01-18T11:21:29.328Z,5.92
2023-01-18T11:22:29.401Z,6.16
2023-01-18T11:23:29.308Z,6.50
2023-01-18T11:24:29.323Z,6.87
2023-01-18T11:25:29.269Z,7.18
2023-01-18T11:26:29.296Z,7.36
2023-01-18T11:27:29.262Z,7.50
2023-01-18T11:28:29.283Z,7.63
2023-01-18T11:29:36.042Z,7.76
2023-01-18T11:30:29.244Z,7.95
2023-01-18T11:31:29.251Z,8.25
2023-01-18T11:32:30.060Z,8.42
2023-01-18T11:33:29.205Z,8.64
2023-01-18T11:34:29.200Z,8.78
2023-01-18T11:35:29.182Z,8.93
2023-01-18T11:36:29.188Z,9.17
2023-01-18T11:37:29.169Z,9.31
2023-01-18T11:38:29.159Z,9.38
2023-01-18T11:39:30.067Z,9.32
2023-01-18T11:40:31.371Z,9.35
2023-01-18T11:41:29.120Z,9.45
2023-01-18T11:42:29.132Z,9.68
2023-01-18T11:43:29.092Z,9.95
2023-01-18T11:44:29.074Z,10.02
2023-01-18T11:45:29.108Z,10.07
2023-01-18T11:46:29.067Z,10.17
2023-01-18T11:47:29.154Z,10.35
2023-01-18T11:48:29.072Z,10.62
2023-01-18T11:49:29.009Z,11.12
2023-01-18T11:50:29.011Z,11.72
2023-01-18T11:51:29.364Z,12.18
2023-01-18T11:52:28.977Z,12.56
2023-01-18T11:53:28.955Z,12.69
2023-01-18T11:54:28.995Z,12.91
2023-01-18T11:55:28.954Z,13.07
2023-01-18T11:56:28.957Z,13.04
2023-01-18T11:57:28.930Z,13.07
2023-01-18T11:58:28.926Z,13.12
2023-01-18T11:59:28.964Z,12.95
2023-01-18T12:00:28.905Z,13.04
2023-01-18T12:01:28.939Z,13.07
2023-01-18T12:02:29.078Z,12.70
2023-01-18T12:03:28.921Z,12.44
2023-01-18T12:04:28.868Z,12.41
2023-01-18T12:05:28.870Z,12.46
2023-01-18T12:06:28.848Z,12.36
2023-01-18T12:07:28.861Z,12.33
2023-01-18T12:08:28.791Z,12.19
2023-01-18T12:09:28.798Z,12.08
2023-01-18T12:10:29.594Z,12.08
2023-01-18T12:11:28.857Z,12.15
2023-01-18T12:12:28.788Z,12.36
2023-01-18T12:13:28.990Z,12.55
2023-01-18T12:14:28.778Z,12.67
2023-01-18T12:15:28.737Z,12.62
2023-01-18T12:16:29.547Z,12.41
2023-01-18T12:17:28.704Z,12.37
2023-01-18T12:18:28.832Z,12.37
2023-01-18T12:19:28.753Z,12.58
2023-01-18T12:20:28.737Z,12.80
2023-01-18T12:21:28.655Z,12.92
2023-01-18T12:22:28.874Z,13.13
2023-01-18T12:23:28.646Z,13.17
2023-01-18T12:24:28.645Z,13.07
2023-01-18T12:25:28.644Z,12.94
2023-01-18T12:26:28.659Z,12.48
2023-01-18T12:27:28.637Z,12.29
2023-01-18T12:28:28.835Z,12.33
2023-01-18T12:29:28.599Z,12.23
2023-01-18T12:30:28.653Z,12.55
2023-01-18T12:31:28.584Z,13.25
2023-01-18T12:32:28.539Z,13.57
2023-01-18T12:33:42.800Z,13.80
2023-01-18T12:34:28.544Z,13.94
2023-01-18T12:35:28.535Z,13.88
2023-01-18T12:36:28.517Z,13.76
2023-01-18T12:37:28.547Z,13.73
2023-01-18T12:38:28.516Z,14.30
2023-01-18T12:39:28.512Z,14.97
2023-01-18T12:40:28.479Z,15.05
2023-01-18T12:41:28.484Z,14.93
2023-01-18T12:42:28.453Z,14.57
2023-01-18T12:43:28.416Z,14.21
2023-01-18T12:44:28.428Z,13.99
2023-01-18T12:45:28.426Z,13.38
2023-01-18T12:46:28.472Z,13.50
2023-01-18T12:47:28.442Z,13.83
2023-01-18T12:48:28.369Z,14.02
2023-01-18T12:49:28.427Z,14.53
2023-01-18T12:50:28.374Z,14.75
2023-01-18T12:51:28.349Z,14.64
2023-01-18T12:52:28.331Z,14.91
2023-01-18T12:53:28.323Z,15.34
2023-01-18T12:54:28.315Z,15.88
2023-01-18T12:55:28.304Z,16.27
2023-01-18T12:56:28.303Z,16.41
2023-01-18T12:57:28.302Z,16.59
2023-01-18T12:58:28.249Z,17.05